Portada
METAR-TAF:

METAR-TAF

Aeropuertos :

Aeropuerto de Chinandega

Chinandega, Nicaragua

latitud: 12-38N, longitud: 087-08W, altitud: 53 m

Observación

El informe se hizo hace 12 horas y 53 minutos, a las 23:00 UTC
Viento 4 kt del este
Temperatura 36°C
Humedad 31%
Presión 1009 hPa
Visibilidad 10 km o más
Escasas nubes a una altura de 2500 ft

METAR: MNCH 222300Z 10004KT 9999 FEW025 36/16 Q1009

Hora: 05:53 (11:53 UTC)


TAF: falta

Observaciones y pronósticos meteorológicos de más de 4000 aeropuertos (mensajes METAR y TAF).

Los puntos amarillos y rojos representan las estaciones disponibles.

Ponga el ratón en el punto deseado para ver el nombre de la estación.

Haga clic para ver las observaciones y los pronósticos meteorológicos.

Para cambiar el mapa : haga clic en los botones verdes con una cruz de color negro para hacer un zoom, en el botón verde con un guión para alejar o en las flechas verdes para mapas adyacentes.


METAR-TAF: